This is the latest recevied weather packets stored in our database for station/object N6WDO. If no packets are shown the sender has not sent any weather packets the latest 10 day(s).
| Time | Temp. | Humidity | Pressure | Rain* | Wind** | Luminosity | Snow |
|---|---|---|---|---|---|---|---|
| 1778006385 | 14.44° C | 79% | 1016.5 hPa | 0 mm | - | 284 W/m² | - |
| 1778006083 | 15° C | 78% | 1016.6 hPa | 0 mm | - | 291 W/m² | - |
| 1778005779 | 15° C | 76% | 1016.5 hPa | 0 mm | - | 361 W/m² | - |
| 1778005477 | 15° C | 74% | 1016.5 hPa | 0 mm | - | 372 W/m² | - |
| 1778005172 | 15.56° C | 78% | 1016.5 hPa | 0 mm | - | 465 W/m² | - |
| 1778004870 | 15.56° C | 74% | 1016.2 hPa | 0 mm | - | 822 W/m² | - |
| 1778004567 | 15° C | 79% | 1016.1 hPa | 0 mm | - | 949 W/m² | - |
| 1778002746 | 12.78° C | 88% | 1016 hPa | 0 mm | - | 193 W/m² | - |
| 1778002442 | 12.78° C | 88% | 1016 hPa | 0 mm | - | 158 W/m² | - |
| 1778002140 | 12.78° C | 89% | 1015.8 hPa | 0 mm | - | 188 W/m² | - |
| 1778001838 | 12.78° C | 89% | 1015.9 hPa | 0 mm | - | 233 W/m² | - |
| 1778001537 | 12.78° C | 89% | 1015.9 hPa | 0 mm | - | 235 W/m² | - |
| 1778001234 | 12.22° C | 88% | 1015.8 hPa | 0 mm | - | 241 W/m² | - |
| 1778000930 | 12.22° C | 89% | 1015.9 hPa | 0 mm | - | 273 W/m² | - |
| 1778000628 | 12.22° C | 89% | 1015.9 hPa | 0 mm | - | 257 W/m² | - |
| 1778000323 | 12.22° C | 90% | 1015.8 hPa | 0 mm | - | 238 W/m² | - |
| 1778000019 | 12.22° C | 92% | 1015.7 hPa | 0 mm | - | 296 W/m² | - |
| 1777999715 | 12.22° C | 92% | 1015.6 hPa | 0 mm | - | 225 W/m² | - |
| 1777999110 | 12.22° C | 93% | 1015.7 hPa | 0 mm | - | 288 W/m² | - |
| 1777998808 | 11.67° C | 95% | 1015.4 hPa | 0 mm | - | 283 W/m² | - |
| 1777998506 | 11.11° C | 97% | 1015.6 hPa | 0 mm | - | 268 W/m² | - |
| 1777998202 | 11.11° C | 97% | 1015.7 hPa | 0 mm | - | 271 W/m² | - |
| 1777997899 | 11.11° C | 97% | 1015.6 hPa | 0 mm | - | 249 W/m² | - |
| 1777996992 | 10.56° C | 98% | 1015.7 hPa | 0 mm | - | 110 W/m² | - |
| 1777996688 | 10.56° C | 98% | 1015.5 hPa | 0 mm | - | 115 W/m² | - |
* Rain latest hour (hover to see other rain measurements)
** Current wind speed in m/s (hover to see current wind gust speed)